Nearby METAR Reports

 

KTOP - Billard Municipal Airport, Topeka, Kansas, USA
Updated: 07/09/2020 8:53pm
Clear
Clear
 Wind from calm
Wind: Calm
Temperature: 79°F , 26°C
Dew Point: 68°F , 20°C
Humidity: 70%
Barometer: 1013.2 hPa
Clouds: Clear
Visibility: 10 miles , 16 km
2020/07/10 01:53 KTOP 100153Z AUTO 00000KT 10SM CLR 26/20 A2992 RMK AO2 SLP124 T02560200
KFOE - Forbes Field Airport, Topeka, Kansas, USA
Updated: 07/09/2020 8:53pm
Clear
Clear
 Wind from NW
Wind: NW 5 mph , 7 km/h
Temperature: 77°F , 25°C
Dew Point: 70°F , 21°C
Humidity: 79%
Barometer: 1013.5 hPa
Clouds: Clear
Visibility: 10 miles , 16 km
2020/07/10 01:53 KFOE 100153Z AUTO 32004KT 10SM CLR 25/21 A2993 RMK AO2 SLP127 T02500206